createdAt,value
2019-05-22T00:00:30.861Z,99.80
2019-05-22T00:03:02.265Z,99.80
2019-05-22T00:05:34.907Z,99.80
2019-05-22T00:08:23.582Z,99.80
2019-05-22T00:10:54.604Z,99.70
2019-05-22T00:13:25.850Z,99.70
2019-05-22T00:15:57.411Z,99.70
2019-05-22T00:18:28.212Z,99.70
2019-05-22T00:20:57.590Z,99.80
2019-05-22T00:23:27.507Z,99.90
2019-05-22T00:25:56.377Z,99.90
2019-05-22T00:28:25.651Z,99.90
2019-05-22T00:30:55.729Z,99.80
2019-05-22T00:33:25.243Z,99.70
2019-05-22T00:35:56.214Z,99.70
2019-05-22T00:38:25.597Z,99.70
2019-05-22T00:40:54.960Z,99.60
2019-05-22T00:43:34.267Z,99.60
2019-05-22T00:46:08.469Z,99.80
2019-05-22T00:48:38.666Z,99.80
2019-05-22T00:51:16.114Z,99.70
2019-05-22T00:53:55.746Z,99.70
2019-05-22T00:56:28.098Z,99.60
2019-05-22T00:58:59.785Z,99.70
2019-05-22T01:01:32.483Z,99.70
2019-05-22T01:04:22.493Z,99.60
2019-05-22T01:07:05.069Z,99.70
2019-05-22T01:09:39.941Z,99.70
2019-05-22T01:12:18.994Z,99.90
2019-05-22T01:14:49.937Z,99.90
2019-05-22T01:17:21.461Z,99.80
2019-05-22T01:19:54.610Z,99.40
2019-05-22T01:22:26.465Z,99.40
2019-05-22T01:24:56.888Z,99.50
2019-05-22T01:27:26.819Z,99.50
2019-05-22T01:29:57.351Z,99.70
2019-05-22T01:32:37.543Z,99.50
2019-05-22T01:35:09.251Z,99.40
2019-05-22T01:37:39.620Z,99.20
2019-05-22T01:40:20.901Z,99.40
2019-05-22T01:42:52.661Z,99.40
2019-05-22T01:45:23.482Z,99.30
2019-05-22T01:47:56.793Z,99.30
2019-05-22T01:50:41.459Z,99.20
2019-05-22T01:53:12.270Z,99.20
2019-05-22T01:55:41.653Z,99.30
2019-05-22T01:58:11.681Z,99.20
2019-05-22T02:00:42.372Z,99.30
2019-05-22T02:03:12.033Z,99.30
2019-05-22T02:05:41.475Z,99.20
2019-05-22T02:08:12.728Z,99.20
2019-05-22T02:10:42.667Z,99.20
2019-05-22T02:13:14.211Z,99.20
2019-05-22T02:15:43.591Z,99.10
2019-05-22T02:18:15.170Z,99.30
2019-05-22T02:20:45.151Z,99.20
2019-05-22T02:23:15.340Z,99.20
2019-05-22T02:25:44.980Z,99.10
2019-05-22T02:28:15.114Z,99.10
2019-05-22T02:30:46.249Z,99.10
2019-05-22T02:33:19.029Z,99.10
2019-05-22T02:35:49.495Z,99.10
2019-05-22T02:38:18.615Z,99.20
2019-05-22T02:40:49.348Z,99.20
2019-05-22T02:43:18.988Z,99.20
2019-05-22T02:45:47.695Z,99.20
2019-05-22T02:48:17.919Z,99.10
2019-05-22T02:50:48.431Z,99.00
2019-05-22T02:53:17.744Z,98.90
2019-05-22T02:55:47.532Z,98.90
2019-05-22T02:58:18.459Z,98.80
2019-05-22T03:00:56.390Z,98.80
2019-05-22T03:03:26.902Z,98.70
2019-05-22T03:05:56.380Z,98.80
2019-05-22T03:08:33.895Z,98.90
2019-05-22T03:11:03.975Z,98.80
2019-05-22T03:14:00.039Z,98.80
2019-05-22T03:16:48.218Z,98.80
2019-05-22T03:19:20.753Z,98.80
2019-05-22T03:21:49.740Z,98.90
2019-05-22T03:24:19.007Z,99.00
2019-05-22T03:26:52.532Z,98.80
2019-05-22T03:29:36.358Z,98.70
2019-05-22T03:32:06.222Z,98.90
2019-05-22T03:34:36.225Z,98.80
2019-05-22T03:37:07.291Z,98.80
2019-05-22T03:39:36.071Z,98.90
2019-05-22T03:42:06.448Z,98.70
2019-05-22T03:44:36.741Z,98.90
2019-05-22T03:47:07.373Z,98.90
2019-05-22T03:49:36.778Z,98.80
2019-05-22T03:52:06.469Z,98.80
2019-05-22T03:54:36.511Z,98.80
2019-05-22T03:57:06.090Z,98.80
2019-05-22T03:59:36.255Z,98.80
2019-05-22T04:02:05.861Z,98.90
2019-05-22T04:04:41.339Z,98.80
2019-05-22T04:07:15.412Z,98.90
2019-05-22T04:09:45.138Z,98.90
2019-05-22T04:12:14.433Z,98.90
2019-05-22T04:14:44.043Z,98.90
2019-05-22T04:17:16.111Z,98.80
2019-05-22T04:19:49.991Z,98.80
2019-05-22T04:22:17.217Z,98.70
2019-05-22T04:24:47.435Z,98.90
2019-05-22T04:27:17.047Z,99.00
2019-05-22T04:29:47.538Z,98.90
2019-05-22T04:32:23.295Z,98.70
2019-05-22T04:34:54.499Z,98.80
2019-05-22T04:37:25.342Z,98.90
2019-05-22T04:39:56.121Z,99.00
2019-05-22T04:42:27.288Z,99.00
2019-05-22T04:45:15.672Z,99.00
2019-05-22T04:48:05.516Z,99.00
2019-05-22T04:50:34.256Z,98.90
2019-05-22T04:53:02.852Z,98.70
2019-05-22T04:55:33.183Z,98.80
2019-05-22T04:58:04.675Z,98.70
2019-05-22T05:00:35.224Z,98.60
2019-05-22T05:03:05.536Z,98.70
2019-05-22T05:05:49.915Z,98.70
2019-05-22T05:08:19.175Z,98.60
2019-05-22T05:10:52.702Z,98.80
2019-05-22T05:13:21.509Z,98.80
2019-05-22T05:15:50.099Z,98.80
2019-05-22T05:18:18.741Z,98.80
2019-05-22T05:20:47.573Z,98.60
2019-05-22T05:23:16.919Z,98.60
2019-05-22T05:25:45.896Z,98.60
2019-05-22T05:28:15.485Z,98.50
2019-05-22T05:30:45.116Z,98.50
2019-05-22T05:33:13.933Z,98.70
2019-05-22T05:35:43.685Z,98.80
2019-05-22T05:38:12.837Z,98.80
2019-05-22T05:40:42.340Z,99.10
2019-05-22T05:43:13.698Z,99.00
2019-05-22T05:45:44.593Z,98.90
2019-05-22T05:48:16.223Z,98.80
2019-05-22T05:51:07.306Z,98.90
2019-05-22T05:53:55.370Z,99.00
2019-05-22T05:56:27.068Z,99.10
2019-05-22T05:58:58.135Z,99.20
2019-05-22T06:01:32.512Z,99.10
2019-05-22T06:04:02.723Z,99.00
2019-05-22T06:06:36.179Z,99.20
2019-05-22T06:09:08.758Z,99.10
2019-05-22T06:11:50.593Z,98.80
2019-05-22T06:14:28.527Z,98.80
2019-05-22T06:17:23.325Z,98.80
2019-05-22T06:20:11.850Z,98.70
2019-05-22T06:22:42.924Z,98.70
2019-05-22T06:25:14.181Z,98.70
2019-05-22T06:27:46.646Z,98.60
2019-05-22T06:30:21.861Z,98.70
2019-05-22T06:33:12.406Z,98.60
2019-05-22T06:35:42.582Z,98.40
2019-05-22T06:38:39.017Z,98.60
2019-05-22T06:41:08.784Z,98.40
2019-05-22T06:43:41.207Z,98.50
2019-05-22T06:46:12.642Z,98.70
2019-05-22T06:48:42.336Z,98.70
2019-05-22T06:51:19.413Z,98.60
2019-05-22T06:53:41.862Z,98.80
2019-05-22T06:56:10.474Z,98.60
2019-05-22T06:58:39.266Z,98.80
2019-05-22T07:01:09.555Z,98.90
2019-05-22T07:03:38.410Z,98.70
2019-05-22T07:06:07.782Z,98.80
2019-05-22T07:08:38.479Z,98.40
2019-05-22T07:11:08.757Z,98.60
2019-05-22T07:13:37.795Z,98.50
2019-05-22T07:16:06.765Z,98.50
2019-05-22T07:18:36.395Z,98.40
2019-05-22T07:21:06.867Z,98.10
2019-05-22T07:23:36.612Z,98.20
2019-05-22T07:26:06.096Z,98.10
2019-05-22T07:28:36.437Z,98.20
2019-05-22T07:31:05.390Z,98.30
2019-05-22T07:33:35.225Z,98.30
2019-05-22T07:36:09.936Z,98.50
2019-05-22T07:38:35.307Z,98.30
2019-05-22T07:41:06.330Z,98.50
2019-05-22T07:43:35.254Z,98.60
2019-05-22T07:46:04.528Z,98.50
2019-05-22T07:48:33.944Z,98.60
2019-05-22T07:51:04.080Z,98.40
2019-05-22T07:53:33.676Z,98.30
2019-05-22T07:56:06.109Z,98.40
2019-05-22T07:58:37.660Z,98.60
2019-05-22T08:01:07.375Z,98.60
2019-05-22T08:03:37.397Z,98.70
2019-05-22T08:06:08.188Z,98.80
2019-05-22T08:08:37.224Z,98.80
2019-05-22T08:11:07.611Z,98.70
2019-05-22T08:13:38.524Z,98.80
2019-05-22T08:16:08.447Z,98.60
2019-05-22T08:18:37.966Z,98.50
2019-05-22T08:21:07.985Z,98.40
2019-05-22T08:23:37.076Z,98.10
2019-05-22T08:26:10.059Z,97.90
2019-05-22T08:28:40.160Z,97.90
2019-05-22T08:31:10.874Z,97.90
2019-05-22T08:33:39.961Z,97.90
2019-05-22T08:36:09.828Z,97.80
2019-05-22T08:38:39.837Z,97.80
2019-05-22T08:41:10.125Z,98.20
2019-05-22T08:44:11.408Z,97.80
2019-05-22T08:46:13.972Z,97.70
2019-05-22T08:48:48.911Z,97.80
2019-05-22T08:51:16.529Z,97.80
2019-05-22T08:53:47.836Z,97.80
2019-05-22T08:56:17.920Z,97.50
2019-05-22T08:58:48.852Z,97.50
2019-05-22T09:01:17.628Z,97.50
2019-05-22T09:03:47.209Z,97.60
2019-05-22T09:06:15.837Z,97.60
2019-05-22T09:08:44.649Z,97.60
2019-05-22T09:11:14.014Z,97.50
2019-05-22T09:13:43.169Z,97.30
2019-05-22T09:16:14.685Z,96.90
2019-05-22T09:19:07.622Z,97.10
2019-05-22T09:21:40.687Z,97.00
2019-05-22T09:24:14.201Z,97.10
2019-05-22T09:27:09.516Z,97.20
2019-05-22T09:29:38.410Z,97.10
2019-05-22T09:32:08.672Z,97.30
2019-05-22T09:34:38.463Z,97.20
2019-05-22T09:37:07.710Z,97.20
2019-05-22T09:39:37.296Z,97.10
2019-05-22T09:42:06.301Z,97.20
2019-05-22T09:44:35.306Z,96.90
2019-05-22T09:47:05.050Z,96.90
2019-05-22T09:49:33.870Z,97.00
2019-05-22T09:52:04.607Z,96.90
2019-05-22T09:54:33.603Z,97.00
2019-05-22T09:57:06.175Z,96.60
2019-05-22T09:59:36.865Z,96.50
2019-05-22T10:02:06.766Z,96.30
2019-05-22T10:04:38.683Z,96.30
2019-05-22T10:07:08.299Z,96.20
2019-05-22T10:09:37.830Z,96.60
2019-05-22T10:12:08.150Z,96.60
2019-05-22T10:14:37.799Z,96.50
2019-05-22T10:17:09.342Z,96.40
2019-05-22T10:19:38.484Z,96.40
2019-05-22T10:22:09.602Z,96.50
2019-05-22T10:24:39.237Z,96.50
2019-05-22T10:27:10.523Z,96.50
2019-05-22T10:29:39.640Z,96.60
2019-05-22T10:32:09.054Z,96.90
2019-05-22T10:34:37.735Z,96.60
2019-05-22T10:37:08.661Z,96.60
2019-05-22T10:39:38.934Z,96.50
2019-05-22T10:42:07.856Z,96.40
2019-05-22T10:44:36.603Z,96.50
2019-05-22T10:47:06.559Z,96.70
2019-05-22T10:49:35.989Z,96.40
2019-05-22T10:52:06.138Z,96.50
2019-05-22T10:54:36.292Z,96.80
2019-05-22T10:57:08.475Z,96.50
2019-05-22T10:59:37.502Z,96.60
2019-05-22T11:02:08.377Z,96.60
2019-05-22T11:04:37.925Z,96.30
2019-05-22T11:07:08.175Z,96.40
2019-05-22T11:09:37.333Z,96.50
2019-05-22T11:12:06.712Z,96.60
2019-05-22T11:14:36.074Z,96.50
2019-05-22T11:17:05.431Z,96.30
2019-05-22T11:19:34.589Z,96.30
2019-05-22T11:22:10.363Z,96.30
2019-05-22T11:24:40.962Z,96.30
2019-05-22T11:27:10.530Z,96.40
2019-05-22T11:29:40.365Z,96.80
2019-05-22T11:32:10.449Z,96.80
2019-05-22T11:34:39.457Z,96.80
2019-05-22T11:37:09.159Z,96.90
2019-05-22T11:39:41.156Z,97.00
2019-05-22T11:42:10.697Z,97.00
2019-05-22T11:44:40.793Z,96.90
2019-05-22T11:47:15.777Z,96.80
2019-05-22T11:49:44.470Z,96.60
2019-05-22T11:52:14.467Z,96.40
2019-05-22T11:54:43.794Z,96.50
2019-05-22T11:57:13.682Z,96.50
2019-05-22T11:59:42.745Z,96.50
2019-05-22T12:02:16.987Z,96.40
2019-05-22T12:04:48.405Z,96.50
2019-05-22T12:07:16.257Z,96.60
2019-05-22T12:09:46.414Z,96.60
2019-05-22T12:12:16.606Z,96.70
2019-05-22T12:14:45.477Z,96.60
2019-05-22T12:17:14.906Z,96.70
2019-05-22T12:19:43.709Z,96.90
2019-05-22T12:22:13.574Z,96.60
2019-05-22T12:24:42.651Z,96.50
2019-05-22T12:27:12.369Z,96.40
2019-05-22T12:29:44.005Z,96.60
2019-05-22T12:32:14.605Z,96.60
2019-05-22T12:34:43.698Z,96.60
2019-05-22T12:37:13.003Z,96.40
2019-05-22T12:39:43.344Z,96.20
2019-05-22T12:42:14.432Z,96.20
2019-05-22T12:44:45.829Z,96.00
2019-05-22T12:47:15.802Z,96.10
2019-05-22T12:49:45.491Z,96.40
2019-05-22T12:52:15.049Z,96.10
2019-05-22T12:54:48.225Z,96.20
2019-05-22T12:57:14.444Z,96.10
2019-05-22T12:59:45.719Z,96.00
2019-05-22T13:02:16.412Z,95.70
2019-05-22T13:04:46.624Z,95.60
2019-05-22T13:07:35.052Z,95.80
2019-05-22T13:10:08.345Z,95.70
2019-05-22T13:12:40.663Z,95.50
2019-05-22T13:15:10.989Z,95.40
2019-05-22T13:17:41.204Z,95.40
2019-05-22T13:20:12.986Z,95.20
2019-05-22T13:22:47.950Z,95.10
2019-05-22T13:25:23.482Z,94.90
2019-05-22T13:27:53.809Z,94.90
2019-05-22T13:30:28.369Z,94.60
2019-05-22T13:32:57.599Z,94.10
2019-05-22T13:35:27.101Z,93.90
2019-05-22T13:38:07.448Z,94.00
2019-05-22T13:40:37.943Z,94.00
2019-05-22T13:43:09.192Z,93.80
2019-05-22T13:45:38.439Z,93.60
2019-05-22T13:48:07.921Z,93.40
2019-05-22T13:50:36.840Z,93.50
2019-05-22T13:53:08.605Z,93.50
2019-05-22T13:55:37.570Z,93.20
2019-05-22T13:58:07.146Z,92.70
2019-05-22T14:00:39.483Z,92.30
2019-05-22T14:03:08.778Z,92.80
2019-05-22T14:05:38.210Z,92.50
2019-05-22T14:08:09.595Z,92.20
2019-05-22T14:10:40.047Z,92.20
2019-05-22T14:13:09.209Z,91.90
2019-05-22T14:15:50.530Z,92.70
2019-05-22T14:18:10.873Z,92.30
2019-05-22T14:20:40.239Z,92.50
2019-05-22T14:23:09.502Z,92.00
2019-05-22T14:25:39.249Z,92.60
2019-05-22T14:28:08.861Z,91.50
2019-05-22T14:30:39.226Z,90.80
2019-05-22T14:33:08.112Z,91.10
2019-05-22T14:35:48.475Z,90.90
2019-05-22T14:38:12.356Z,90.50
2019-05-22T14:40:41.782Z,90.30
2019-05-22T14:43:11.532Z,90.00
2019-05-22T14:45:53.251Z,89.30
2019-05-22T14:48:23.136Z,88.30
2019-05-22T14:50:52.306Z,88.40
2019-05-22T14:53:21.669Z,88.70
2019-05-22T14:55:51.765Z,88.50
2019-05-22T14:58:20.613Z,90.20
2019-05-22T15:00:50.770Z,90.20
2019-05-22T15:03:22.353Z,90.00
2019-05-22T15:05:52.154Z,90.30
2019-05-22T15:08:20.858Z,89.30
2019-05-22T15:10:50.125Z,88.80
2019-05-22T15:13:22.917Z,88.90
2019-05-22T15:15:52.070Z,88.80
2019-05-22T15:18:20.736Z,88.10
2019-05-22T15:21:00.146Z,88.10
2019-05-22T15:23:49.095Z,89.00
2019-05-22T15:26:18.355Z,90.50
2019-05-22T15:28:47.055Z,89.20
2019-05-22T15:31:16.380Z,88.00
2019-05-22T15:33:45.338Z,87.30
2019-05-22T15:36:17.269Z,87.20
2019-05-22T15:38:48.863Z,87.60
2019-05-22T15:41:18.545Z,88.50
2019-05-22T15:43:52.858Z,87.70
2019-05-22T15:46:21.395Z,87.30
2019-05-22T15:48:51.699Z,86.50
2019-05-22T15:51:24.242Z,88.40
2019-05-22T15:53:57.070Z,87.10
2019-05-22T15:56:29.012Z,86.30
2019-05-22T15:58:58.143Z,85.30
2019-05-22T16:01:29.890Z,85.80
2019-05-22T16:04:01.319Z,85.60
2019-05-22T16:06:33.364Z,85.40
2019-05-22T16:09:04.454Z,85.60
2019-05-22T16:11:34.219Z,85.70
2019-05-22T16:14:03.698Z,85.80
2019-05-22T16:16:35.266Z,86.50
2019-05-22T16:19:05.913Z,86.30
2019-05-22T16:21:38.648Z,86.10
2019-05-22T16:24:08.097Z,86.40
2019-05-22T16:26:38.072Z,86.70
2019-05-22T16:29:08.143Z,86.50
2019-05-22T16:31:39.615Z,86.90
2019-05-22T16:34:08.601Z,86.80
2019-05-22T16:37:12.746Z,86.60
2019-05-22T16:39:50.473Z,85.90
2019-05-22T16:42:31.146Z,84.80
2019-05-22T16:45:00.504Z,85.20
2019-05-22T16:47:33.533Z,85.90
2019-05-22T16:50:00.872Z,85.70
2019-05-22T16:52:29.995Z,85.70
2019-05-22T16:55:00.020Z,86.00
2019-05-22T16:57:31.561Z,86.40
2019-05-22T17:00:01.384Z,86.80
2019-05-22T17:02:32.215Z,86.80
2019-05-22T17:05:02.201Z,86.20
2019-05-22T17:07:33.109Z,86.60
2019-05-22T17:10:05.221Z,86.00
2019-05-22T17:12:36.242Z,85.80
2019-05-22T17:15:08.857Z,86.00
2019-05-22T17:17:37.564Z,87.30
2019-05-22T17:20:12.474Z,86.70
2019-05-22T17:22:41.482Z,87.50
2019-05-22T17:25:10.493Z,88.10
2019-05-22T17:27:39.822Z,88.10
2019-05-22T17:30:12.003Z,87.80
2019-05-22T17:32:41.447Z,88.00
2019-05-22T17:35:11.904Z,89.90
2019-05-22T17:37:42.047Z,89.80
2019-05-22T17:40:12.296Z,90.50
2019-05-22T17:42:43.642Z,91.20
2019-05-22T17:45:13.079Z,90.90
2019-05-22T17:47:43.157Z,90.60
2019-05-22T17:50:26.223Z,91.10
2019-05-22T17:52:45.946Z,91.30
2019-05-22T17:55:16.249Z,91.00
2019-05-22T17:57:45.415Z,91.10
2019-05-22T18:00:19.935Z,90.80
2019-05-22T18:02:49.234Z,91.00
2019-05-22T18:05:19.751Z,91.60
2019-05-22T18:07:48.792Z,91.40
2019-05-22T18:10:20.627Z,91.20
2019-05-22T18:12:49.195Z,91.00
2019-05-22T18:15:18.750Z,90.90
2019-05-22T18:17:48.769Z,90.90
2019-05-22T18:20:18.684Z,90.90
2019-05-22T18:22:47.956Z,91.00
2019-05-22T18:25:17.839Z,90.90
2019-05-22T18:27:47.508Z,91.00
2019-05-22T18:30:17.735Z,91.00
2019-05-22T18:32:47.165Z,91.10
2019-05-22T18:35:16.289Z,91.40
2019-05-22T18:37:44.924Z,91.60
2019-05-22T18:40:14.809Z,91.80
2019-05-22T18:42:43.793Z,91.90
2019-05-22T18:45:13.812Z,92.00
2019-05-22T18:47:42.828Z,92.10
2019-05-22T18:50:11.762Z,92.30
2019-05-22T18:52:46.644Z,92.60
2019-05-22T18:55:16.914Z,92.80
2019-05-22T18:57:46.536Z,92.90
2019-05-22T19:00:19.921Z,93.00
2019-05-22T19:02:48.683Z,93.10
2019-05-22T19:05:20.471Z,93.20
2019-05-22T19:07:50.422Z,93.40
2019-05-22T19:10:19.829Z,93.60
2019-05-22T19:12:49.440Z,93.90
2019-05-22T19:15:19.245Z,94.10
2019-05-22T19:17:48.503Z,94.00
2019-05-22T19:20:18.519Z,94.10
2019-05-22T19:22:58.994Z,94.10
2019-05-22T19:25:18.107Z,94.60
2019-05-22T19:27:46.830Z,94.30
2019-05-22T19:30:18.672Z,94.30
2019-05-22T19:32:48.754Z,94.50
2019-05-22T19:35:18.002Z,94.80
2019-05-22T19:37:47.780Z,95.00
2019-05-22T19:40:17.238Z,95.10
2019-05-22T19:42:46.386Z,95.10
2019-05-22T19:45:15.770Z,95.00
2019-05-22T19:47:53.027Z,94.90
2019-05-22T19:50:24.044Z,95.20
2019-05-22T19:52:55.073Z,95.30
2019-05-22T19:55:27.934Z,95.10
2019-05-22T19:57:57.350Z,95.10
2019-05-22T20:00:36.103Z,95.40
2019-05-22T20:03:06.384Z,95.40
2019-05-22T20:05:35.433Z,95.50
2019-05-22T20:08:05.674Z,95.50
2019-05-22T20:10:34.438Z,95.50
2019-05-22T20:13:06.048Z,95.60
2019-05-22T20:15:35.339Z,95.60
2019-05-22T20:18:05.030Z,95.80
2019-05-22T20:20:34.227Z,95.70
2019-05-22T20:23:04.486Z,95.70
2019-05-22T20:25:34.099Z,95.80
2019-05-22T20:28:03.676Z,95.70
2019-05-22T20:30:33.000Z,95.80
2019-05-22T20:33:01.568Z,96.00
2019-05-22T20:35:31.132Z,96.00
2019-05-22T20:38:00.550Z,95.70
2019-05-22T20:40:30.506Z,95.90
2019-05-22T20:42:59.994Z,96.10
2019-05-22T20:45:31.108Z,96.10
2019-05-22T20:48:12.633Z,96.10
2019-05-22T20:50:43.418Z,96.20
2019-05-22T20:53:14.520Z,96.30
2019-05-22T20:55:44.033Z,96.20
2019-05-22T20:58:14.370Z,96.30
2019-05-22T21:00:43.966Z,96.30
2019-05-22T21:03:13.345Z,96.40
2019-05-22T21:05:44.031Z,96.50
2019-05-22T21:08:15.711Z,96.60
2019-05-22T21:10:47.975Z,96.70
2019-05-22T21:13:18.659Z,96.60
2019-05-22T21:15:49.999Z,96.40
2019-05-22T21:18:20.805Z,96.20
2019-05-22T21:20:54.749Z,96.10
2019-05-22T21:23:22.091Z,96.10
2019-05-22T21:25:52.322Z,96.10
2019-05-22T21:28:21.629Z,96.40
2019-05-22T21:30:53.311Z,96.50
2019-05-22T21:33:23.678Z,96.50
2019-05-22T21:35:52.919Z,96.50
2019-05-22T21:38:23.726Z,96.60
2019-05-22T21:40:54.985Z,96.50
2019-05-22T21:43:44.528Z,96.30
2019-05-22T21:46:13.784Z,96.30
2019-05-22T21:48:44.750Z,96.40
2019-05-22T21:51:32.757Z,96.30
2019-05-22T21:54:01.912Z,96.30
2019-05-22T21:56:30.638Z,96.30
2019-05-22T21:58:59.646Z,96.30
2019-05-22T22:01:36.590Z,96.40
2019-05-22T22:04:09.694Z,96.40
2019-05-22T22:06:38.902Z,96.30
2019-05-22T22:09:08.823Z,96.30
2019-05-22T22:11:37.763Z,96.30
2019-05-22T22:14:07.619Z,96.40
2019-05-22T22:16:36.224Z,96.40
2019-05-22T22:19:09.498Z,96.40
2019-05-22T22:21:39.952Z,96.30
2019-05-22T22:24:29.178Z,96.20
2019-05-22T22:26:58.489Z,96.10
2019-05-22T22:29:27.105Z,96.00
2019-05-22T22:31:58.387Z,96.00
2019-05-22T22:34:32.522Z,96.00
2019-05-22T22:37:03.257Z,95.90
2019-05-22T22:39:32.636Z,96.00
2019-05-22T22:42:01.210Z,96.10
2019-05-22T22:44:30.900Z,96.00
2019-05-22T22:47:02.704Z,96.00
2019-05-22T22:49:32.281Z,96.00
2019-05-22T22:52:01.906Z,96.00
2019-05-22T22:54:31.788Z,96.20
2019-05-22T22:57:02.297Z,96.00
2019-05-22T22:59:30.801Z,95.90
2019-05-22T23:02:01.890Z,95.80
2019-05-22T23:04:32.112Z,95.70
2019-05-22T23:07:04.602Z,95.60
2019-05-22T23:09:33.465Z,95.80
2019-05-22T23:12:03.170Z,95.80
2019-05-22T23:14:33.873Z,95.80
2019-05-22T23:17:02.893Z,95.90
2019-05-22T23:19:34.892Z,96.00
2019-05-22T23:22:03.607Z,95.90
2019-05-22T23:24:34.372Z,95.90
2019-05-22T23:27:03.760Z,96.00
2019-05-22T23:29:33.369Z,95.90
2019-05-22T23:32:03.945Z,95.90
2019-05-22T23:34:32.605Z,95.60
2019-05-22T23:37:02.886Z,95.70
2019-05-22T23:39:32.757Z,95.50
2019-05-22T23:42:04.896Z,95.40
2019-05-22T23:44:36.900Z,95.70
2019-05-22T23:47:07.570Z,95.60
2019-05-22T23:49:37.340Z,95.50
2019-05-22T23:52:08.230Z,95.50
2019-05-22T23:54:39.014Z,95.60
2019-05-22T23:57:09.421Z,95.60
2019-05-22T23:59:40.611Z,95.60
